< < Back
Terminal Aerodrome Forecast


Current Version              Previous Versions:   1  2  3  4  5  6  7  8  9  

Terminal Aerodrome Forecast

959
FTUS44 KOHX 250500
TAFCSV
TAF
KCSV 250521Z 2506/2606 00000KT P6SM SKC
     FM251600 21005KT P6SM BKN035
     FM260000 33004KT P6SM SKC=



Latest METAR

602
SAUS70 KWBC 251500 RRI
MTRCSV
METAR KCSV 251453Z AUTO 29004KT 10SM CLR 16/09 A3011 RMK AO2 SLP190
T01610089 50002


USA.gov is the U.S. government's official web portal to all federal, state and local government web resources and services.